sensor_id;sensor_type;location;lat;lon;timestamp;temperature;humidity
36670;DHT22;22662;47.412;9.742;2022-12-18T00:02:10;-3.90;99.90
36670;DHT22;22662;47.412;9.742;2022-12-18T00:04:35;-3.90;99.90
36670;DHT22;22662;47.412;9.742;2022-12-18T00:07:01;-3.90;99.90
36670;DHT22;22662;47.412;9.742;2022-12-18T00:09:26;-3.90;99.90
36670;DHT22;22662;47.412;9.742;2022-12-18T00:11:52;-3.90;99.90
36670;DHT22;22662;47.412;9.742;2022-12-18T00:14:17;-3.90;99.90
36670;DHT22;22662;47.412;9.742;2022-12-18T00:16:44;-3.90;99.90
36670;DHT22;22662;47.412;9.742;2022-12-18T00:19:09;-3.90;99.90
36670;DHT22;22662;47.412;9.742;2022-12-18T00:21:35;-3.90;99.90
36670;DHT22;22662;47.412;9.742;2022-12-18T00:24:00;-3.90;99.90
36670;DHT22;22662;47.412;9.742;2022-12-18T00:26:27;-3.90;99.90
36670;DHT22;22662;47.412;9.742;2022-12-18T00:28:53;-4.00;99.90
36670;DHT22;22662;47.412;9.742;2022-12-18T00:31:22;-4.00;99.90
36670;DHT22;22662;47.412;9.742;2022-12-18T00:33:48;-4.00;99.90
36670;DHT22;22662;47.412;9.742;2022-12-18T00:36:14;-4.00;99.90
36670;DHT22;22662;47.412;9.742;2022-12-18T00:38:40;-4.00;99.90
36670;DHT22;22662;47.412;9.742;2022-12-18T00:41:07;-4.00;99.90
36670;DHT22;22662;47.412;9.742;2022-12-18T00:43:32;-4.00;99.90
36670;DHT22;22662;47.412;9.742;2022-12-18T00:45:58;-4.00;99.90
36670;DHT22;22662;47.412;9.742;2022-12-18T00:48:23;-4.00;99.90
36670;DHT22;22662;47.412;9.742;2022-12-18T00:50:49;-4.10;99.90
36670;DHT22;22662;47.412;9.742;2022-12-18T00:53:14;-4.20;99.90
36670;DHT22;22662;47.412;9.742;2022-12-18T00:55:40;-4.20;99.90
36670;DHT22;22662;47.412;9.742;2022-12-18T00:58:06;-4.10;99.90
36670;DHT22;22662;47.412;9.742;2022-12-18T01:00:31;-4.20;99.90
36670;DHT22;22662;47.412;9.742;2022-12-18T01:02:57;-4.20;99.90
36670;DHT22;22662;47.412;9.742;2022-12-18T01:05:23;-4.20;99.90
36670;DHT22;22662;47.412;9.742;2022-12-18T01:07:48;-4.20;99.90
36670;DHT22;22662;47.412;9.742;2022-12-18T01:10:14;-4.10;99.90
36670;DHT22;22662;47.412;9.742;2022-12-18T01:12:39;-4.10;99.90
36670;DHT22;22662;47.412;9.742;2022-12-18T01:15:05;-4.10;99.90
36670;DHT22;22662;47.412;9.742;2022-12-18T01:17:31;-4.00;99.90
36670;DHT22;22662;47.412;9.742;2022-12-18T01:19:57;-3.90;99.90
36670;DHT22;22662;47.412;9.742;2022-12-18T01:22:22;-3.90;99.90
36670;DHT22;22662;47.412;9.742;2022-12-18T01:24:48;-4.00;99.90
36670;DHT22;22662;47.412;9.742;2022-12-18T01:27:13;-4.00;99.90
36670;DHT22;22662;47.412;9.742;2022-12-18T01:29:39;-4.00;99.90
36670;DHT22;22662;47.412;9.742;2022-12-18T01:32:04;-4.00;99.90
36670;DHT22;22662;47.412;9.742;2022-12-18T01:34:30;-4.00;99.90
36670;DHT22;22662;47.412;9.742;2022-12-18T01:36:55;-4.10;99.90
36670;DHT22;22662;47.412;9.742;2022-12-18T01:39:21;-4.00;99.90
36670;DHT22;22662;47.412;9.742;2022-12-18T01:41:46;-4.10;99.90
36670;DHT22;22662;47.412;9.742;2022-12-18T01:47:22;-4.10;99.90
36670;DHT22;22662;47.412;9.742;2022-12-18T01:49:48;-4.10;99.90
36670;DHT22;22662;47.412;9.742;2022-12-18T01:52:14;-4.10;99.90
36670;DHT22;22662;47.412;9.742;2022-12-18T01:54:40;-4.00;99.90
36670;DHT22;22662;47.412;9.742;2022-12-18T01:57:06;-4.00;99.90
36670;DHT22;22662;47.412;9.742;2022-12-18T01:59:32;-4.10;99.90
36670;DHT22;22662;47.412;9.742;2022-12-18T02:01:58;-4.10;99.90
36670;DHT22;22662;47.412;9.742;2022-12-18T02:04:26;-4.10;99.90
36670;DHT22;22662;47.412;9.742;2022-12-18T02:06:58;-4.10;99.90
36670;DHT22;22662;47.412;9.742;2022-12-18T02:09:28;-4.10;99.90
36670;DHT22;22662;47.412;9.742;2022-12-18T02:12:01;-4.10;99.90
36670;DHT22;22662;47.412;9.742;2022-12-18T02:17:01;-4.20;99.90
36670;DHT22;22662;47.412;9.742;2022-12-18T02:22:01;-4.20;99.90
36670;DHT22;22662;47.412;9.742;2022-12-18T02:24:39;-4.20;99.90
36670;DHT22;22662;47.412;9.742;2022-12-18T02:27:08;-4.20;99.90
36670;DHT22;22662;47.412;9.742;2022-12-18T02:29:39;-4.30;99.90
36670;DHT22;22662;47.412;9.742;2022-12-18T02:32:06;-4.20;99.90
36670;DHT22;22662;47.412;9.742;2022-12-18T02:34:34;-4.20;99.90
36670;DHT22;22662;47.412;9.742;2022-12-18T02:37:03;-4.10;99.90
36670;DHT22;22662;47.412;9.742;2022-12-18T02:39:29;-4.00;99.90
36670;DHT22;22662;47.412;9.742;2022-12-18T02:41:56;-3.90;99.90
36670;DHT22;22662;47.412;9.742;2022-12-18T02:44:22;-3.70;99.90
36670;DHT22;22662;47.412;9.742;2022-12-18T02:46:51;-3.60;99.90
36670;DHT22;22662;47.412;9.742;2022-12-18T02:52:07;-3.50;99.90
36670;DHT22;22662;47.412;9.742;2022-12-18T02:54:41;-3.40;99.90
36670;DHT22;22662;47.412;9.742;2022-12-18T02:57:13;-3.40;99.90
36670;DHT22;22662;47.412;9.742;2022-12-18T02:59:41;-3.40;99.90
36670;DHT22;22662;47.412;9.742;2022-12-18T03:07:09;-3.20;99.90
36670;DHT22;22662;47.412;9.742;2022-12-18T03:09:35;-3.10;99.90
36670;DHT22;22662;47.412;9.742;2022-12-18T03:12:05;-3.10;99.90
36670;DHT22;22662;47.412;9.742;2022-12-18T03:14:52;-3.20;99.90
36670;DHT22;22662;47.412;9.742;2022-12-18T03:17:20;-3.10;99.90
36670;DHT22;22662;47.412;9.742;2022-12-18T03:19:48;-3.10;99.90
36670;DHT22;22662;47.412;9.742;2022-12-18T03:22:14;-3.20;99.90
36670;DHT22;22662;47.412;9.742;2022-12-18T03:24:40;-3.10;99.90
36670;DHT22;22662;47.412;9.742;2022-12-18T03:27:07;-3.10;99.90
36670;DHT22;22662;47.412;9.742;2022-12-18T03:29:56;-3.20;99.90
36670;DHT22;22662;47.412;9.742;2022-12-18T03:32:28;-3.10;99.90
36670;DHT22;22662;47.412;9.742;2022-12-18T03:34:57;-3.20;99.90
36670;DHT22;22662;47.412;9.742;2022-12-18T03:37:23;-3.40;99.90
36670;DHT22;22662;47.412;9.742;2022-12-18T03:39:49;-3.40;99.90
36670;DHT22;22662;47.412;9.742;2022-12-18T03:42:21;-3.30;99.90
36670;DHT22;22662;47.412;9.742;2022-12-18T03:47:28;-3.30;99.90
36670;DHT22;22662;47.412;9.742;2022-12-18T03:50:13;-3.20;99.90
36670;DHT22;22662;47.412;9.742;2022-12-18T03:55:11;-3.40;99.90
36670;DHT22;22662;47.412;9.742;2022-12-18T03:57:37;-3.40;99.90
36670;DHT22;22662;47.412;9.742;2022-12-18T04:00:10;-3.40;99.90
36670;DHT22;22662;47.412;9.742;2022-12-18T04:02:37;-3.40;99.90
36670;DHT22;22662;47.412;9.742;2022-12-18T04:05:05;-3.30;99.90
36670;DHT22;22662;47.412;9.742;2022-12-18T04:07:32;-3.30;99.90
36670;DHT22;22662;47.412;9.742;2022-12-18T04:09:58;-3.30;99.90
36670;DHT22;22662;47.412;9.742;2022-12-18T04:12:26;-3.40;99.90
36670;DHT22;22662;47.412;9.742;2022-12-18T04:14:51;-3.40;99.90
36670;DHT22;22662;47.412;9.742;2022-12-18T04:17:17;-3.30;99.90
36670;DHT22;22662;47.412;9.742;2022-12-18T04:19:43;-3.30;99.90
36670;DHT22;22662;47.412;9.742;2022-12-18T04:22:11;-3.30;99.90
36670;DHT22;22662;47.412;9.742;2022-12-18T04:24:37;-3.20;99.90
36670;DHT22;22662;47.412;9.742;2022-12-18T04:27:03;-3.10;99.90
36670;DHT22;22662;47.412;9.742;2022-12-18T04:29:28;-3.10;99.90
36670;DHT22;22662;47.412;9.742;2022-12-18T04:31:54;-3.10;99.90
36670;DHT22;22662;47.412;9.742;2022-12-18T04:34:20;-3.10;99.90
36670;DHT22;22662;47.412;9.742;2022-12-18T04:36:45;-3.10;99.90
36670;DHT22;22662;47.412;9.742;2022-12-18T04:39:11;-3.10;99.90
36670;DHT22;22662;47.412;9.742;2022-12-18T04:41:37;-3.10;99.90
36670;DHT22;22662;47.412;9.742;2022-12-18T04:44:02;-3.10;99.90
36670;DHT22;22662;47.412;9.742;2022-12-18T04:46:28;-3.10;99.90
36670;DHT22;22662;47.412;9.742;2022-12-18T04:48:54;-3.10;99.90
36670;DHT22;22662;47.412;9.742;2022-12-18T04:51:19;-3.20;99.90
36670;DHT22;22662;47.412;9.742;2022-12-18T04:53:45;-3.30;99.90
36670;DHT22;22662;47.412;9.742;2022-12-18T04:56:11;-3.30;99.90
36670;DHT22;22662;47.412;9.742;2022-12-18T04:58:37;-3.20;99.90
36670;DHT22;22662;47.412;9.742;2022-12-18T05:01:04;-3.20;99.90
36670;DHT22;22662;47.412;9.742;2022-12-18T05:03:30;-3.20;99.90
36670;DHT22;22662;47.412;9.742;2022-12-18T05:05:55;-3.10;99.90
36670;DHT22;22662;47.412;9.742;2022-12-18T05:08:21;-3.10;99.90
36670;DHT22;22662;47.412;9.742;2022-12-18T05:10:46;-3.10;99.90
36670;DHT22;22662;47.412;9.742;2022-12-18T05:13:12;-3.20;99.90
36670;DHT22;22662;47.412;9.742;2022-12-18T05:15:37;-3.20;99.90
36670;DHT22;22662;47.412;9.742;2022-12-18T05:18:03;-3.30;99.90
36670;DHT22;22662;47.412;9.742;2022-12-18T05:20:29;-3.20;99.90
36670;DHT22;22662;47.412;9.742;2022-12-18T05:22:55;-3.20;99.90
36670;DHT22;22662;47.412;9.742;2022-12-18T05:25:21;-3.10;99.90
36670;DHT22;22662;47.412;9.742;2022-12-18T05:27:47;-3.20;99.90
36670;DHT22;22662;47.412;9.742;2022-12-18T05:30:12;-3.20;99.90
36670;DHT22;22662;47.412;9.742;2022-12-18T05:32:38;-3.20;99.90
36670;DHT22;22662;47.412;9.742;2022-12-18T05:35:05;-3.20;99.90
36670;DHT22;22662;47.412;9.742;2022-12-18T05:37:31;-3.30;99.90
36670;DHT22;22662;47.412;9.742;2022-12-18T05:39:56;-3.30;99.90
36670;DHT22;22662;47.412;9.742;2022-12-18T05:42:22;-3.30;99.90
36670;DHT22;22662;47.412;9.742;2022-12-18T05:44:49;-3.40;99.90
36670;DHT22;22662;47.412;9.742;2022-12-18T05:47:15;-3.30;99.90
36670;DHT22;22662;47.412;9.742;2022-12-18T05:49:41;-3.40;99.90
36670;DHT22;22662;47.412;9.742;2022-12-18T05:52:06;-3.50;99.90
36670;DHT22;22662;47.412;9.742;2022-12-18T05:54:32;-3.60;99.90
36670;DHT22;22662;47.412;9.742;2022-12-18T05:56:58;-3.60;99.90
36670;DHT22;22662;47.412;9.742;2022-12-18T05:59:23;-3.60;99.90
36670;DHT22;22662;47.412;9.742;2022-12-18T06:01:49;-3.70;99.90
36670;DHT22;22662;47.412;9.742;2022-12-18T06:04:14;-3.70;99.90
36670;DHT22;22662;47.412;9.742;2022-12-18T06:06:40;-3.70;99.90
36670;DHT22;22662;47.412;9.742;2022-12-18T06:09:05;-3.70;99.90
36670;DHT22;22662;47.412;9.742;2022-12-18T06:11:33;-3.70;99.90
36670;DHT22;22662;47.412;9.742;2022-12-18T06:13:59;-3.70;99.90
36670;DHT22;22662;47.412;9.742;2022-12-18T06:16:25;-3.60;99.90
36670;DHT22;22662;47.412;9.742;2022-12-18T06:18:51;-3.50;99.90
36670;DHT22;22662;47.412;9.742;2022-12-18T06:21:17;-3.50;99.90
36670;DHT22;22662;47.412;9.742;2022-12-18T06:23:42;-3.50;99.90
36670;DHT22;22662;47.412;9.742;2022-12-18T06:26:09;-3.40;99.90
36670;DHT22;22662;47.412;9.742;2022-12-18T06:28:36;-3.40;99.90
36670;DHT22;22662;47.412;9.742;2022-12-18T06:31:02;-3.40;99.90
36670;DHT22;22662;47.412;9.742;2022-12-18T06:33:28;-3.40;99.90
36670;DHT22;22662;47.412;9.742;2022-12-18T06:35:53;-3.30;99.90
36670;DHT22;22662;47.412;9.742;2022-12-18T06:38:19;-3.30;99.90
36670;DHT22;22662;47.412;9.742;2022-12-18T06:40:45;-3.20;99.90
36670;DHT22;22662;47.412;9.742;2022-12-18T06:43:10;-3.30;99.90
36670;DHT22;22662;47.412;9.742;2022-12-18T06:45:36;-3.30;99.90
36670;DHT22;22662;47.412;9.742;2022-12-18T06:48:01;-3.40;99.90
36670;DHT22;22662;47.412;9.742;2022-12-18T06:50:27;-3.40;99.90
36670;DHT22;22662;47.412;9.742;2022-12-18T06:52:53;-3.40;99.90
36670;DHT22;22662;47.412;9.742;2022-12-18T06:55:18;-3.30;99.90
36670;DHT22;22662;47.412;9.742;2022-12-18T06:57:44;-3.30;99.90
36670;DHT22;22662;47.412;9.742;2022-12-18T07:00:09;-3.30;99.90
36670;DHT22;22662;47.412;9.742;2022-12-18T07:02:35;-3.20;99.90
36670;DHT22;22662;47.412;9.742;2022-12-18T07:05:01;-3.20;99.90
36670;DHT22;22662;47.412;9.742;2022-12-18T07:07:26;-3.20;99.90
36670;DHT22;22662;47.412;9.742;2022-12-18T07:09:52;-3.30;99.90
36670;DHT22;22662;47.412;9.742;2022-12-18T07:12:17;-3.30;99.90
36670;DHT22;22662;47.412;9.742;2022-12-18T07:14:43;-3.40;99.90
36670;DHT22;22662;47.412;9.742;2022-12-18T07:17:08;-3.50;99.90
36670;DHT22;22662;47.412;9.742;2022-12-18T07:19:34;-3.30;99.90
36670;DHT22;22662;47.412;9.742;2022-12-18T07:22:00;-3.30;99.90
36670;DHT22;22662;47.412;9.742;2022-12-18T07:24:25;-3.20;99.90
36670;DHT22;22662;47.412;9.742;2022-12-18T07:26:51;-3.30;99.90
36670;DHT22;22662;47.412;9.742;2022-12-18T07:29:16;-3.20;99.90
36670;DHT22;22662;47.412;9.742;2022-12-18T07:31:42;-3.30;99.90
36670;DHT22;22662;47.412;9.742;2022-12-18T07:34:11;-3.20;99.90
36670;DHT22;22662;47.412;9.742;2022-12-18T07:36:37;-3.10;99.90
36670;DHT22;22662;47.412;9.742;2022-12-18T07:39:02;-3.10;99.90
36670;DHT22;22662;47.412;9.742;2022-12-18T07:41:28;-3.10;99.90
36670;DHT22;22662;47.412;9.742;2022-12-18T07:43:53;-3.10;99.90
36670;DHT22;22662;47.412;9.742;2022-12-18T07:46:19;-3.10;99.90
36670;DHT22;22662;47.412;9.742;2022-12-18T07:48:45;-3.10;99.90
36670;DHT22;22662;47.412;9.742;2022-12-18T07:51:10;-3.20;99.90
36670;DHT22;22662;47.412;9.742;2022-12-18T07:53:36;-3.30;99.90
36670;DHT22;22662;47.412;9.742;2022-12-18T07:56:06;-3.20;99.90
36670;DHT22;22662;47.412;9.742;2022-12-18T07:58:32;-3.10;99.90
36670;DHT22;22662;47.412;9.742;2022-12-18T08:01:04;-3.10;99.90
36670;DHT22;22662;47.412;9.742;2022-12-18T08:03:30;-3.20;99.90
36670;DHT22;22662;47.412;9.742;2022-12-18T08:05:59;-3.10;99.90
36670;DHT22;22662;47.412;9.742;2022-12-18T08:08:25;-3.10;99.90
36670;DHT22;22662;47.412;9.742;2022-12-18T08:10:50;-3.10;99.90
36670;DHT22;22662;47.412;9.742;2022-12-18T08:13:16;-3.00;99.90
36670;DHT22;22662;47.412;9.742;2022-12-18T08:15:41;-2.90;99.90
36670;DHT22;22662;47.412;9.742;2022-12-18T08:18:07;-2.70;99.90
36670;DHT22;22662;47.412;9.742;2022-12-18T08:20:32;-2.80;99.90
36670;DHT22;22662;47.412;9.742;2022-12-18T08:22:58;-2.80;99.90
36670;DHT22;22662;47.412;9.742;2022-12-18T08:25:23;-2.90;99.90
36670;DHT22;22662;47.412;9.742;2022-12-18T08:27:49;-2.90;99.90
36670;DHT22;22662;47.412;9.742;2022-12-18T08:30:14;-3.00;99.90
36670;DHT22;22662;47.412;9.742;2022-12-18T08:32:40;-3.00;99.90
36670;DHT22;22662;47.412;9.742;2022-12-18T08:35:06;-3.10;99.90
36670;DHT22;22662;47.412;9.742;2022-12-18T08:37:31;-3.00;99.90
36670;DHT22;22662;47.412;9.742;2022-12-18T08:39:57;-3.00;99.90
36670;DHT22;22662;47.412;9.742;2022-12-18T08:42:22;-3.00;99.90
36670;DHT22;22662;47.412;9.742;2022-12-18T08:45:07;-2.90;99.90
36670;DHT22;22662;47.412;9.742;2022-12-18T08:47:32;-2.90;99.90
36670;DHT22;22662;47.412;9.742;2022-12-18T08:49:58;-2.70;99.90
36670;DHT22;22662;47.412;9.742;2022-12-18T08:52:23;-2.70;99.90
36670;DHT22;22662;47.412;9.742;2022-12-18T08:54:49;-2.60;99.90
36670;DHT22;22662;47.412;9.742;2022-12-18T08:57:15;-2.60;99.90
36670;DHT22;22662;47.412;9.742;2022-12-18T08:59:41;-2.50;99.90
36670;DHT22;22662;47.412;9.742;2022-12-18T09:02:08;-2.40;99.90
36670;DHT22;22662;47.412;9.742;2022-12-18T09:04:33;-2.60;99.90
36670;DHT22;22662;47.412;9.742;2022-12-18T09:06:59;-2.70;99.90
36670;DHT22;22662;47.412;9.742;2022-12-18T09:09:24;-2.60;99.90
36670;DHT22;22662;47.412;9.742;2022-12-18T09:11:50;-2.60;99.90
36670;DHT22;22662;47.412;9.742;2022-12-18T09:14:15;-2.70;99.90
36670;DHT22;22662;47.412;9.742;2022-12-18T09:16:41;-2.60;99.90
36670;DHT22;22662;47.412;9.742;2022-12-18T09:19:07;-2.60;99.90
36670;DHT22;22662;47.412;9.742;2022-12-18T09:21:33;-2.60;99.90
36670;DHT22;22662;47.412;9.742;2022-12-18T09:23:59;-2.60;99.90
36670;DHT22;22662;47.412;9.742;2022-12-18T09:26:25;-2.70;99.90
36670;DHT22;22662;47.412;9.742;2022-12-18T09:28:51;-2.60;99.90
36670;DHT22;22662;47.412;9.742;2022-12-18T09:31:17;-2.50;99.90
36670;DHT22;22662;47.412;9.742;2022-12-18T09:33:43;-2.60;99.90
36670;DHT22;22662;47.412;9.742;2022-12-18T09:36:11;-2.60;99.90
36670;DHT22;22662;47.412;9.742;2022-12-18T09:38:37;-2.50;99.90
36670;DHT22;22662;47.412;9.742;2022-12-18T09:41:04;-2.50;99.90
36670;DHT22;22662;47.412;9.742;2022-12-18T09:43:40;-2.40;99.90
36670;DHT22;22662;47.412;9.742;2022-12-18T09:46:09;-2.30;99.90
36670;DHT22;22662;47.412;9.742;2022-12-18T09:48:37;-2.20;99.90
36670;DHT22;22662;47.412;9.742;2022-12-18T09:51:15;-2.10;99.90
36670;DHT22;22662;47.412;9.742;2022-12-18T09:53:44;-2.00;99.90
36670;DHT22;22662;47.412;9.742;2022-12-18T09:56:15;-2.00;99.90
36670;DHT22;22662;47.412;9.742;2022-12-18T09:58:43;-2.10;99.90
36670;DHT22;22662;47.412;9.742;2022-12-18T10:01:11;-2.20;99.90
36670;DHT22;22662;47.412;9.742;2022-12-18T10:03:37;-2.20;99.90
36670;DHT22;22662;47.412;9.742;2022-12-18T10:06:07;-2.10;99.90
36670;DHT22;22662;47.412;9.742;2022-12-18T10:08:42;-2.00;99.90
36670;DHT22;22662;47.412;9.742;2022-12-18T10:16:44;-1.70;99.90
36670;DHT22;22662;47.412;9.742;2022-12-18T10:22:00;-1.30;99.90
36670;DHT22;22662;47.412;9.742;2022-12-18T10:24:37;-1.40;99.90
36670;DHT22;22662;47.412;9.742;2022-12-18T10:27:09;-1.40;99.90
36670;DHT22;22662;47.412;9.742;2022-12-18T10:29:36;-1.70;99.90
36670;DHT22;22662;47.412;9.742;2022-12-18T10:32:02;-1.50;99.90
36670;DHT22;22662;47.412;9.742;2022-12-18T10:34:28;-1.60;99.90
36670;DHT22;22662;47.412;9.742;2022-12-18T10:36:53;-1.70;99.90
36670;DHT22;22662;47.412;9.742;2022-12-18T10:39:20;-1.90;99.90
36670;DHT22;22662;47.412;9.742;2022-12-18T10:41:47;-1.80;99.90
36670;DHT22;22662;47.412;9.742;2022-12-18T10:44:18;-1.90;99.90
36670;DHT22;22662;47.412;9.742;2022-12-18T10:46:45;-1.90;99.90
36670;DHT22;22662;47.412;9.742;2022-12-18T10:49:24;-1.70;99.90
36670;DHT22;22662;47.412;9.742;2022-12-18T10:51:50;-1.50;99.90
36670;DHT22;22662;47.412;9.742;2022-12-18T10:54:17;-1.40;99.90
36670;DHT22;22662;47.412;9.742;2022-12-18T10:56:44;-1.30;99.90
36670;DHT22;22662;47.412;9.742;2022-12-18T10:59:10;-1.20;99.90
36670;DHT22;22662;47.412;9.742;2022-12-18T11:01:50;-1.10;99.90
36670;DHT22;22662;47.412;9.742;2022-12-18T11:04:17;-1.10;99.90
36670;DHT22;22662;47.412;9.742;2022-12-18T11:06:57;-1.40;99.90
36670;DHT22;22662;47.412;9.742;2022-12-18T11:09:23;-1.40;99.90
36670;DHT22;22662;47.412;9.742;2022-12-18T11:11:50;-1.00;99.90
36670;DHT22;22662;47.412;9.742;2022-12-18T11:14:21;-1.00;99.90
36670;DHT22;22662;47.412;9.742;2022-12-18T11:16:51;-0.80;99.90
36670;DHT22;22662;47.412;9.742;2022-12-18T11:21:49;-1.10;99.90
36670;DHT22;22662;47.412;9.742;2022-12-18T11:24:33;-1.30;99.90
36670;DHT22;22662;47.412;9.742;2022-12-18T11:27:06;-1.20;99.90
36670;DHT22;22662;47.412;9.742;2022-12-18T11:29:41;-1.10;99.90
36670;DHT22;22662;47.412;9.742;2022-12-18T11:34:38;-1.10;99.90
36670;DHT22;22662;47.412;9.742;2022-12-18T11:37:03;-1.10;99.90
36670;DHT22;22662;47.412;9.742;2022-12-18T11:47:38;-1.40;99.90
36670;DHT22;22662;47.412;9.742;2022-12-18T11:50:14;-1.30;99.90
36670;DHT22;22662;47.412;9.742;2022-12-18T11:52:41;-1.00;99.90
36670;DHT22;22662;47.412;9.742;2022-12-18T11:55:11;-0.80;99.90
36670;DHT22;22662;47.412;9.742;2022-12-18T11:57:59;-0.60;99.90
36670;DHT22;22662;47.412;9.742;2022-12-18T12:00:23;-0.50;99.90
36670;DHT22;22662;47.412;9.742;2022-12-18T12:02:57;-0.70;99.90
36670;DHT22;22662;47.412;9.742;2022-12-18T12:18:00;-1.20;99.90
36670;DHT22;22662;47.412;9.742;2022-12-18T12:20:42;-1.10;99.90
36670;DHT22;22662;47.412;9.742;2022-12-18T12:25:58;-0.60;99.90
36670;DHT22;22662;47.412;9.742;2022-12-18T12:28:35;-0.60;99.90
36670;DHT22;22662;47.412;9.742;2022-12-18T12:31:05;-0.50;99.90
36670;DHT22;22662;47.412;9.742;2022-12-18T12:33:51;-0.60;99.90
36670;DHT22;22662;47.412;9.742;2022-12-18T12:36:22;-0.60;99.90
36670;DHT22;22662;47.412;9.742;2022-12-18T12:38:53;-0.50;99.90
36670;DHT22;22662;47.412;9.742;2022-12-18T12:41:21;-0.40;99.90
36670;DHT22;22662;47.412;9.742;2022-12-18T12:44:08;-0.40;99.90
36670;DHT22;22662;47.412;9.742;2022-12-18T12:46:39;-0.60;99.90
36670;DHT22;22662;47.412;9.742;2022-12-18T12:49:10;-0.50;99.90
36670;DHT22;22662;47.412;9.742;2022-12-18T12:51:38;-0.50;99.90
36670;DHT22;22662;47.412;9.742;2022-12-18T12:54:05;-0.50;99.90
36670;DHT22;22662;47.412;9.742;2022-12-18T13:00:04;-0.40;99.90
36670;DHT22;22662;47.412;9.742;2022-12-18T13:02:28;-0.30;99.90
36670;DHT22;22662;47.412;9.742;2022-12-18T13:10:13;-0.30;99.90
36670;DHT22;22662;47.412;9.742;2022-12-18T13:12:55;-0.30;99.90
36670;DHT22;22662;47.412;9.742;2022-12-18T13:15:25;-0.40;99.90
36670;DHT22;22662;47.412;9.742;2022-12-18T13:18:13;-0.30;99.90
36670;DHT22;22662;47.412;9.742;2022-12-18T13:20:37;-0.40;99.90
36670;DHT22;22662;47.412;9.742;2022-12-18T13:23:19;-0.30;99.90
36670;DHT22;22662;47.412;9.742;2022-12-18T13:25:45;-0.30;99.90
36670;DHT22;22662;47.412;9.742;2022-12-18T13:28:14;-0.10;99.90
36670;DHT22;22662;47.412;9.742;2022-12-18T13:40:59;-0.30;99.90
36670;DHT22;22662;47.412;9.742;2022-12-18T13:43:29;-0.30;99.90
36670;DHT22;22662;47.412;9.742;2022-12-18T13:48:39;-0.50;99.90
36670;DHT22;22662;47.412;9.742;2022-12-18T13:51:07;-0.50;99.90
36670;DHT22;22662;47.412;9.742;2022-12-18T13:53:39;-0.70;99.90
36670;DHT22;22662;47.412;9.742;2022-12-18T13:56:07;-0.60;99.90
36670;DHT22;22662;47.412;9.742;2022-12-18T13:58:32;-0.80;99.90
36670;DHT22;22662;47.412;9.742;2022-12-18T14:00:58;-0.80;99.90
36670;DHT22;22662;47.412;9.742;2022-12-18T14:03:26;-0.70;99.90
36670;DHT22;22662;47.412;9.742;2022-12-18T14:05:56;-0.80;99.90
36670;DHT22;22662;47.412;9.742;2022-12-18T14:08:23;-0.70;99.90
36670;DHT22;22662;47.412;9.742;2022-12-18T14:10:51;-0.80;99.90
36670;DHT22;22662;47.412;9.742;2022-12-18T14:13:21;-0.80;99.90
36670;DHT22;22662;47.412;9.742;2022-12-18T14:15:48;-0.90;99.90
36670;DHT22;22662;47.412;9.742;2022-12-18T14:20:40;-0.90;99.90
36670;DHT22;22662;47.412;9.742;2022-12-18T14:23:23;-0.80;99.90
36670;DHT22;22662;47.412;9.742;2022-12-18T14:25:49;-0.80;99.90
36670;DHT22;22662;47.412;9.742;2022-12-18T14:28:15;-0.90;99.90
36670;DHT22;22662;47.412;9.742;2022-12-18T14:30:42;-1.00;99.90
36670;DHT22;22662;47.412;9.742;2022-12-18T14:33:12;-0.90;99.90
36670;DHT22;22662;47.412;9.742;2022-12-18T14:35:42;-0.90;99.90
36670;DHT22;22662;47.412;9.742;2022-12-18T14:38:21;-0.80;99.90
36670;DHT22;22662;47.412;9.742;2022-12-18T14:40:47;-0.80;99.90
36670;DHT22;22662;47.412;9.742;2022-12-18T14:43:16;-0.80;99.90
36670;DHT22;22662;47.412;9.742;2022-12-18T14:45:42;-0.80;99.90
36670;DHT22;22662;47.412;9.742;2022-12-18T14:48:16;-0.90;99.90
36670;DHT22;22662;47.412;9.742;2022-12-18T14:50:42;-0.90;99.90
36670;DHT22;22662;47.412;9.742;2022-12-18T14:53:30;-0.80;99.90
36670;DHT22;22662;47.412;9.742;2022-12-18T14:55:56;-0.80;99.90
36670;DHT22;22662;47.412;9.742;2022-12-18T14:58:22;-0.90;99.90
36670;DHT22;22662;47.412;9.742;2022-12-18T15:00:47;-0.80;99.90
36670;DHT22;22662;47.412;9.742;2022-12-18T15:03:15;-0.90;99.90
36670;DHT22;22662;47.412;9.742;2022-12-18T15:05:43;-1.00;99.90
36670;DHT22;22662;47.412;9.742;2022-12-18T15:08:27;-1.00;99.90
36670;DHT22;22662;47.412;9.742;2022-12-18T15:10:53;-1.00;99.90
36670;DHT22;22662;47.412;9.742;2022-12-18T15:13:22;-1.10;99.90
36670;DHT22;22662;47.412;9.742;2022-12-18T15:15:53;-1.20;99.90
36670;DHT22;22662;47.412;9.742;2022-12-18T15:18:20;-1.30;99.90
36670;DHT22;22662;47.412;9.742;2022-12-18T15:20:49;-1.20;99.90
36670;DHT22;22662;47.412;9.742;2022-12-18T15:26:03;-1.40;99.90
36670;DHT22;22662;47.412;9.742;2022-12-18T15:33:27;-1.50;99.90
36670;DHT22;22662;47.412;9.742;2022-12-18T15:36:02;-1.40;99.90
36670;DHT22;22662;47.412;9.742;2022-12-18T15:38:27;-1.50;99.90
36670;DHT22;22662;47.412;9.742;2022-12-18T15:40:53;-1.40;99.90
36670;DHT22;22662;47.412;9.742;2022-12-18T15:43:22;-1.50;99.90
36670;DHT22;22662;47.412;9.742;2022-12-18T15:46:01;-1.60;99.90
36670;DHT22;22662;47.412;9.742;2022-12-18T15:48:26;-1.60;99.90
36670;DHT22;22662;47.412;9.742;2022-12-18T15:50:53;-1.60;99.90
36670;DHT22;22662;47.412;9.742;2022-12-18T15:53:19;-1.70;99.90
36670;DHT22;22662;47.412;9.742;2022-12-18T15:55:44;-1.60;99.90
36670;DHT22;22662;47.412;9.742;2022-12-18T15:58:29;-1.60;99.90
36670;DHT22;22662;47.412;9.742;2022-12-18T16:00:55;-1.50;99.90
36670;DHT22;22662;47.412;9.742;2022-12-18T16:03:21;-1.50;99.90
36670;DHT22;22662;47.412;9.742;2022-12-18T16:05:47;-1.60;99.90
36670;DHT22;22662;47.412;9.742;2022-12-18T16:08:12;-1.60;99.90
36670;DHT22;22662;47.412;9.742;2022-12-18T16:10:38;-1.50;99.90
36670;DHT22;22662;47.412;9.742;2022-12-18T16:13:03;-1.50;99.90
36670;DHT22;22662;47.412;9.742;2022-12-18T16:15:29;-1.60;99.90
36670;DHT22;22662;47.412;9.742;2022-12-18T16:17:54;-1.60;99.90
36670;DHT22;22662;47.412;9.742;2022-12-18T16:20:21;-1.70;99.90
36670;DHT22;22662;47.412;9.742;2022-12-18T16:22:47;-1.80;99.90
36670;DHT22;22662;47.412;9.742;2022-12-18T16:25:20;-1.80;99.90
36670;DHT22;22662;47.412;9.742;2022-12-18T16:27:46;-1.90;99.90
36670;DHT22;22662;47.412;9.742;2022-12-18T16:30:16;-1.90;99.90
36670;DHT22;22662;47.412;9.742;2022-12-18T16:32:42;-1.90;99.90
36670;DHT22;22662;47.412;9.742;2022-12-18T16:35:11;-2.00;99.90
36670;DHT22;22662;47.412;9.742;2022-12-18T16:37:37;-2.00;99.90
36670;DHT22;22662;47.412;9.742;2022-12-18T16:40:02;-1.90;99.90
36670;DHT22;22662;47.412;9.742;2022-12-18T16:42:28;-2.00;99.90
36670;DHT22;22662;47.412;9.742;2022-12-18T16:44:53;-1.80;99.90
36670;DHT22;22662;47.412;9.742;2022-12-18T16:47:19;-1.90;99.90
36670;DHT22;22662;47.412;9.742;2022-12-18T16:49:45;-1.90;99.90
36670;DHT22;22662;47.412;9.742;2022-12-18T16:52:11;-1.90;99.90
36670;DHT22;22662;47.412;9.742;2022-12-18T16:54:36;-1.90;99.90
36670;DHT22;22662;47.412;9.742;2022-12-18T16:57:02;-2.00;99.90
36670;DHT22;22662;47.412;9.742;2022-12-18T16:59:29;-2.00;99.90
36670;DHT22;22662;47.412;9.742;2022-12-18T17:01:55;-1.90;99.90
36670;DHT22;22662;47.412;9.742;2022-12-18T17:04:21;-1.80;99.90